createdAt,value
2022-12-11T00:01:17.881Z,7.90
2022-12-11T00:03:46.745Z,5.77
2022-12-11T00:06:15.375Z,5.40
2022-12-11T00:08:42.125Z,5.53
2022-12-11T00:11:09.574Z,5.77
2022-12-11T00:13:36.345Z,6.40
2022-12-11T00:16:02.938Z,5.67
2022-12-11T00:18:29.600Z,5.70
2022-12-11T00:21:01.404Z,5.23
2022-12-11T00:23:28.272Z,7.53
2022-12-11T00:25:55.139Z,5.63
2022-12-11T00:28:22.086Z,6.00
2022-12-11T00:30:48.719Z,8.30
2022-12-11T00:33:16.241Z,6.30
2022-12-11T00:35:45.698Z,6.43
2022-12-11T00:38:21.513Z,6.73
2022-12-11T00:40:49.487Z,6.00
2022-12-11T00:43:17.503Z,6.70
2022-12-11T00:45:46.540Z,6.83
2022-12-11T00:48:13.824Z,5.00
2022-12-11T00:50:41.869Z,9.10
2022-12-11T00:53:08.657Z,7.77
2022-12-11T00:55:40.121Z,6.43
2022-12-11T00:58:07.432Z,6.43
2022-12-11T01:00:34.321Z,5.80
2022-12-11T01:03:01.573Z,5.70
2022-12-11T01:05:28.576Z,9.90
2022-12-11T01:07:55.140Z,6.73
2022-12-11T01:10:26.057Z,7.60
2022-12-11T01:13:01.140Z,7.13
2022-12-11T01:15:30.809Z,7.20
2022-12-11T01:17:57.397Z,9.23
2022-12-11T01:20:25.618Z,8.10
2022-12-11T01:22:53.731Z,6.63
2022-12-11T01:25:20.336Z,7.60
2022-12-11T01:27:47.097Z,7.37
2022-12-11T01:30:14.348Z,8.60
2022-12-11T01:32:40.886Z,12.80
2022-12-11T01:35:08.553Z,11.27
2022-12-11T01:37:35.345Z,8.80
2022-12-11T01:40:04.458Z,6.97
2022-12-11T01:42:31.465Z,8.43
2022-12-11T01:45:34.465Z,6.73
2022-12-11T01:48:10.913Z,6.00
2022-12-11T01:50:45.649Z,6.60
2022-12-11T01:53:17.308Z,7.90
2022-12-11T01:55:46.580Z,10.17
2022-12-11T01:58:13.503Z,7.27
2022-12-11T02:00:40.213Z,6.43
2022-12-11T02:03:06.782Z,7.30
2022-12-11T02:05:33.398Z,6.87
2022-12-11T02:08:02.965Z,7.67
2022-12-11T02:10:45.461Z,8.50
2022-12-11T02:13:22.576Z,7.77
2022-12-11T02:15:55.414Z,7.87
2022-12-11T02:18:29.161Z,8.53
2022-12-11T02:21:03.048Z,6.73
2022-12-11T02:23:47.723Z,10.37
2022-12-11T02:26:41.987Z,7.50
2022-12-11T02:29:30.456Z,6.73
2022-12-11T02:32:05.364Z,7.43
2022-12-11T02:34:43.328Z,4.67
2022-12-11T02:37:16.806Z,7.13
2022-12-11T02:39:45.563Z,8.13
2022-12-11T02:42:14.371Z,5.87
2022-12-11T02:44:41.626Z,6.70
2022-12-11T02:47:12.860Z,8.43
2022-12-11T02:49:42.047Z,6.07
2022-12-11T02:52:12.314Z,5.73
2022-12-11T02:54:41.172Z,7.90
2022-12-11T02:57:24.385Z,5.77
2022-12-11T02:59:50.928Z,10.50
2022-12-11T03:02:18.784Z,6.00
2022-12-11T03:04:46.094Z,6.10
2022-12-11T03:07:17.085Z,5.67
2022-12-11T03:09:45.542Z,8.00
2022-12-11T03:12:18.829Z,7.57
2022-12-11T03:14:45.667Z,8.43
2022-12-11T03:17:19.639Z,8.63
2022-12-11T03:19:49.833Z,8.47
2022-12-11T03:22:16.308Z,7.77
2022-12-11T03:24:50.894Z,5.03
2022-12-11T03:27:27.406Z,7.13
2022-12-11T03:30:14.636Z,8.57
2022-12-11T03:32:51.563Z,7.03
2022-12-11T03:35:18.057Z,6.10
2022-12-11T03:37:48.267Z,6.57
2022-12-11T03:40:19.212Z,9.57
2022-12-11T03:42:49.671Z,7.93
2022-12-11T03:45:19.000Z,10.30
2022-12-11T03:47:47.291Z,8.20
2022-12-11T03:50:17.770Z,8.60
2022-12-11T03:52:46.623Z,6.07
2022-12-11T03:55:17.034Z,6.50
2022-12-11T03:57:43.848Z,6.13
2022-12-11T04:00:17.901Z,6.40
2022-12-11T04:02:45.015Z,6.40
2022-12-11T04:05:12.164Z,4.77
2022-12-11T04:07:39.924Z,5.60
2022-12-11T04:10:06.993Z,5.63
2022-12-11T04:12:33.527Z,5.30
2022-12-11T04:15:02.943Z,6.03
2022-12-11T04:17:54.824Z,5.43
2022-12-11T04:20:40.685Z,5.93
2022-12-11T04:23:31.660Z,6.43
2022-12-11T04:26:10.529Z,9.50
2022-12-11T04:28:38.132Z,6.60
2022-12-11T04:31:05.061Z,5.17
2022-12-11T04:33:32.152Z,7.80
2022-12-11T04:35:59.998Z,6.90
2022-12-11T04:38:26.841Z,6.60
2022-12-11T04:41:01.832Z,6.70
2022-12-11T04:43:28.686Z,6.73
2022-12-11T04:46:07.432Z,5.00
2022-12-11T04:48:35.141Z,8.60
2022-12-11T04:51:02.275Z,6.07
2022-12-11T04:53:28.975Z,8.77
2022-12-11T04:55:55.495Z,7.80
2022-12-11T04:58:23.096Z,8.27
2022-12-11T05:00:49.740Z,7.83
2022-12-11T05:03:16.866Z,9.20
2022-12-11T05:05:52.008Z,7.00
2022-12-11T05:08:20.624Z,7.00
2022-12-11T05:11:01.946Z,7.70
2022-12-11T05:13:29.654Z,6.70
2022-12-11T05:15:56.676Z,6.67
2022-12-11T05:18:23.254Z,10.00
2022-12-11T05:21:01.771Z,9.13
2022-12-11T05:23:29.208Z,12.27
2022-12-11T05:26:02.001Z,10.67
2022-12-11T05:28:30.751Z,10.70
2022-12-11T05:31:08.358Z,9.80
2022-12-11T05:33:35.388Z,7.40
2022-12-11T05:36:02.279Z,10.83
2022-12-11T05:38:29.008Z,10.50
2022-12-11T05:41:00.537Z,11.40
2022-12-11T05:43:29.466Z,11.30
2022-12-11T05:45:56.919Z,9.03
2022-12-11T05:48:23.467Z,8.63
2022-12-11T05:50:59.796Z,10.17
2022-12-11T05:53:26.916Z,7.37
2022-12-11T05:55:53.929Z,8.23
2022-12-11T05:58:21.441Z,11.90
2022-12-11T06:00:48.144Z,8.43
2022-12-11T06:03:14.776Z,10.93
2022-12-11T06:05:42.373Z,11.53
2022-12-11T06:08:09.101Z,11.40
2022-12-11T06:10:35.683Z,8.80
2022-12-11T06:13:02.221Z,12.70
2022-12-11T06:15:28.917Z,9.97
2022-12-11T06:17:55.731Z,9.80
2022-12-11T06:20:22.249Z,8.83
2022-12-11T06:22:49.037Z,9.73
2022-12-11T06:25:16.073Z,11.60
2022-12-11T06:27:42.690Z,12.03
2022-12-11T06:30:09.823Z,12.07
2022-12-11T06:32:36.798Z,10.40
2022-12-11T06:35:03.525Z,10.47
2022-12-11T06:37:30.052Z,12.70
2022-12-11T06:39:56.590Z,9.43
2022-12-11T06:42:23.699Z,10.73
2022-12-11T06:44:50.665Z,15.00
2022-12-11T06:47:17.183Z,7.23
2022-12-11T06:49:44.317Z,11.13
2022-12-11T06:52:16.637Z,11.33
2022-12-11T06:54:44.953Z,11.77
2022-12-11T06:57:11.617Z,10.87
2022-12-11T06:59:38.399Z,11.90
2022-12-11T07:02:05.277Z,16.60
2022-12-11T07:04:32.030Z,11.40
2022-12-11T07:06:58.552Z,14.00
2022-12-11T07:09:25.068Z,10.40
2022-12-11T07:11:52.937Z,14.00
2022-12-11T07:14:20.385Z,10.60
2022-12-11T07:16:46.922Z,9.70
2022-12-11T07:19:13.617Z,9.13
2022-12-11T07:21:40.199Z,11.97
2022-12-11T07:24:07.382Z,11.40
2022-12-11T07:26:33.960Z,10.07
2022-12-11T07:29:00.941Z,8.10
2022-12-11T07:31:29.427Z,10.17
2022-12-11T07:33:58.198Z,8.97
2022-12-11T07:36:25.701Z,8.57
2022-12-11T07:38:53.273Z,9.23
2022-12-11T07:41:20.130Z,9.33
2022-12-11T07:43:53.173Z,10.63
2022-12-11T07:46:23.679Z,11.03
2022-12-11T07:48:50.831Z,9.97
2022-12-11T07:51:20.551Z,10.03
2022-12-11T07:53:49.488Z,9.27
2022-12-11T07:56:17.748Z,8.77
2022-12-11T07:58:44.944Z,9.73
2022-12-11T08:01:13.911Z,11.83
2022-12-11T08:03:40.846Z,7.93
2022-12-11T08:06:07.952Z,7.53
2022-12-11T08:08:35.029Z,10.83
2022-12-11T08:11:03.164Z,10.30
2022-12-11T08:13:30.122Z,8.43
2022-12-11T08:15:56.751Z,8.93
2022-12-11T08:18:24.441Z,10.37
2022-12-11T08:20:51.123Z,14.93
2022-12-11T08:23:17.671Z,10.27
2022-12-11T08:25:44.691Z,7.40
2022-12-11T08:28:12.831Z,10.30
2022-12-11T08:30:40.346Z,10.40
2022-12-11T08:33:07.470Z,8.50
2022-12-11T08:35:39.680Z,10.03
2022-12-11T08:38:06.199Z,9.57
2022-12-11T08:40:32.876Z,11.80
2022-12-11T08:42:59.692Z,9.63
2022-12-11T08:45:27.197Z,8.83
2022-12-11T08:47:53.981Z,9.10
2022-12-11T08:50:20.859Z,15.03
2022-12-11T08:52:47.511Z,10.87
2022-12-11T08:55:14.229Z,11.80
2022-12-11T08:57:40.946Z,9.43
2022-12-11T09:00:09.564Z,11.70
2022-12-11T09:02:36.140Z,10.73
2022-12-11T09:05:02.809Z,11.80
2022-12-11T09:07:29.327Z,9.37
2022-12-11T09:09:56.378Z,7.53
2022-12-11T09:12:23.517Z,8.70
2022-12-11T09:14:50.173Z,7.83
2022-12-11T09:17:16.705Z,8.57
2022-12-11T09:19:43.373Z,7.70
2022-12-11T09:22:11.227Z,9.27
2022-12-11T09:24:38.577Z,11.17
2022-12-11T09:27:06.245Z,12.43
2022-12-11T09:29:33.024Z,6.53
2022-12-11T09:31:59.979Z,9.53
2022-12-11T09:34:29.378Z,9.13
2022-12-11T09:36:57.102Z,9.20
2022-12-11T09:39:23.800Z,7.60
2022-12-11T09:42:14.859Z,9.43
2022-12-11T09:44:58.326Z,9.57
2022-12-11T09:47:33.669Z,9.47
2022-12-11T09:50:09.499Z,9.43
2022-12-11T09:52:57.839Z,10.20
2022-12-11T09:55:29.659Z,9.30
2022-12-11T09:58:16.785Z,6.53
2022-12-11T10:00:48.339Z,10.53
2022-12-11T10:03:50.171Z,8.83
2022-12-11T10:06:33.210Z,8.70
2022-12-11T10:09:27.938Z,10.17
2022-12-11T10:12:03.791Z,11.00
2022-12-11T10:14:47.376Z,9.97
2022-12-11T10:17:29.407Z,9.57
2022-12-11T10:20:17.422Z,5.90
2022-12-11T10:22:45.338Z,9.33
2022-12-11T10:25:25.226Z,7.73
2022-12-11T10:27:52.415Z,7.57
2022-12-11T10:30:36.869Z,8.43
2022-12-11T10:33:22.579Z,9.17
2022-12-11T10:35:55.355Z,7.17
2022-12-11T10:38:27.486Z,9.43
2022-12-11T10:41:14.246Z,8.33
2022-12-11T10:43:43.611Z,8.83
2022-12-11T10:46:33.095Z,8.80
2022-12-11T10:49:01.049Z,9.50
2022-12-11T10:51:30.346Z,9.50
2022-12-11T10:54:07.303Z,9.83
2022-12-11T10:56:37.425Z,11.97
2022-12-11T10:59:04.426Z,11.77
2022-12-11T11:01:32.558Z,9.30
2022-12-11T11:04:04.224Z,10.17
2022-12-11T11:06:30.802Z,12.27
2022-12-11T11:08:59.762Z,12.63
2022-12-11T11:11:38.153Z,12.47
2022-12-11T11:14:10.697Z,11.80
2022-12-11T11:16:39.933Z,12.50
2022-12-11T11:19:07.101Z,11.87
2022-12-11T11:21:35.783Z,8.97
2022-12-11T11:24:03.537Z,12.10
2022-12-11T11:27:04.443Z,11.27
2022-12-11T11:29:28.978Z,13.67
2022-12-11T11:31:56.583Z,9.60
2022-12-11T11:34:23.368Z,11.40
2022-12-11T11:36:58.684Z,10.00
2022-12-11T11:39:25.657Z,13.07
2022-12-11T11:42:01.629Z,13.73
2022-12-11T11:44:34.615Z,10.80
2022-12-11T11:47:10.936Z,9.53
2022-12-11T11:49:53.113Z,13.20
2022-12-11T11:52:28.891Z,11.50
2022-12-11T11:55:15.131Z,22.10
2022-12-11T11:57:49.448Z,12.30
2022-12-11T12:00:27.579Z,13.33
2022-12-11T12:03:06.133Z,11.17
2022-12-11T12:05:58.133Z,13.50
2022-12-11T12:08:56.285Z,16.57
2022-12-11T12:11:42.780Z,10.93
2022-12-11T12:14:54.494Z,12.40
2022-12-11T12:17:54.960Z,10.43
2022-12-11T12:20:44.245Z,12.43
2022-12-11T12:24:04.413Z,12.00
2022-12-11T12:26:34.473Z,13.77
2022-12-11T12:29:06.862Z,12.60
2022-12-11T12:31:53.757Z,10.60
2022-12-11T12:34:38.008Z,11.77
2022-12-11T12:37:12.592Z,10.03
2022-12-11T12:39:46.160Z,10.03
2022-12-11T12:42:28.417Z,10.90
2022-12-11T12:45:03.732Z,8.87
2022-12-11T12:47:33.868Z,11.20
2022-12-11T12:50:03.075Z,13.87
2022-12-11T12:52:34.957Z,10.80
2022-12-11T12:55:13.894Z,11.00
2022-12-11T12:58:05.033Z,11.40
2022-12-11T13:00:39.049Z,11.27
2022-12-11T13:03:21.842Z,12.00
2022-12-11T13:06:03.490Z,11.60
2022-12-11T13:08:46.101Z,12.50
2022-12-11T13:11:15.323Z,12.30
2022-12-11T13:13:51.558Z,12.47
2022-12-11T13:16:19.815Z,11.27
2022-12-11T13:18:48.341Z,12.60
2022-12-11T13:21:27.379Z,11.37
2022-12-11T13:23:54.438Z,12.80
2022-12-11T13:26:32.949Z,13.40
2022-12-11T13:28:59.505Z,12.23
2022-12-11T13:31:34.549Z,14.53
2022-12-11T13:34:21.618Z,15.03
2022-12-11T13:36:53.307Z,13.00
2022-12-11T13:39:25.519Z,14.27
2022-12-11T13:41:56.751Z,13.33
2022-12-11T13:44:30.553Z,9.60
2022-12-11T13:47:00.192Z,11.20
2022-12-11T13:49:31.114Z,12.30
2022-12-11T13:51:59.805Z,11.17
2022-12-11T13:54:28.538Z,12.97
2022-12-11T13:57:08.665Z,15.03
2022-12-11T13:59:42.894Z,17.93
2022-12-11T14:02:18.519Z,20.40
2022-12-11T14:04:47.968Z,13.60
2022-12-11T14:07:20.582Z,15.17
2022-12-11T14:09:47.153Z,15.23
2022-12-11T14:12:20.218Z,16.13
2022-12-11T14:14:53.305Z,15.20
2022-12-11T14:17:26.782Z,17.00
2022-12-11T14:19:56.344Z,17.43
2022-12-11T14:22:25.453Z,16.93
2022-12-11T14:24:58.165Z,19.47
2022-12-11T14:27:26.246Z,17.40
2022-12-11T14:29:53.308Z,15.70
2022-12-11T14:32:34.697Z,13.50
2022-12-11T14:35:05.872Z,15.00
2022-12-11T14:37:34.327Z,16.37
2022-12-11T14:40:07.236Z,20.40
2022-12-11T14:42:43.587Z,15.40
2022-12-11T14:45:24.264Z,16.57
2022-12-11T14:47:52.983Z,18.10
2022-12-11T14:50:30.933Z,21.97
2022-12-11T14:53:04.480Z,23.80
2022-12-11T14:55:35.078Z,25.67
2022-12-11T14:58:17.585Z,24.33
2022-12-11T15:00:44.156Z,28.07
2022-12-11T15:03:17.322Z,26.63
2022-12-11T15:05:55.440Z,21.63
2022-12-11T15:08:27.756Z,20.10
2022-12-11T15:11:08.078Z,21.23
2022-12-11T15:13:37.268Z,22.90
2022-12-11T15:16:07.420Z,20.87
2022-12-11T15:18:36.675Z,20.13
2022-12-11T15:21:07.115Z,21.80
2022-12-11T15:23:48.796Z,26.07
2022-12-11T15:26:15.585Z,24.17
2022-12-11T15:28:42.154Z,23.97
2022-12-11T15:31:29.587Z,20.90
2022-12-11T15:33:56.656Z,16.80
2022-12-11T15:36:31.829Z,18.47
2022-12-11T15:38:59.228Z,21.23
2022-12-11T15:41:26.326Z,17.60
2022-12-11T15:43:58.845Z,22.93
2022-12-11T15:46:25.611Z,21.90
2022-12-11T15:48:52.191Z,24.27
2022-12-11T15:51:19.289Z,23.53
2022-12-11T15:53:46.637Z,19.70
2022-12-11T15:56:15.012Z,18.63
2022-12-11T15:58:45.663Z,17.77
2022-12-11T16:01:12.335Z,17.23
2022-12-11T16:03:39.028Z,23.50
2022-12-11T16:06:05.745Z,22.93
2022-12-11T16:08:32.673Z,29.17
2022-12-11T16:10:59.298Z,30.10
2022-12-11T16:13:27.085Z,33.00
2022-12-11T16:15:54.323Z,34.73
2022-12-11T16:18:23.559Z,29.40
2022-12-11T16:20:51.513Z,31.97
2022-12-11T16:23:18.629Z,31.60
2022-12-11T16:25:46.094Z,30.10
2022-12-11T16:28:17.984Z,23.10
2022-12-11T16:30:45.771Z,21.90
2022-12-11T16:33:13.788Z,24.77
2022-12-11T16:35:42.641Z,26.07
2022-12-11T16:38:10.410Z,19.77
2022-12-11T16:40:37.757Z,25.30
2022-12-11T16:43:05.934Z,28.97
2022-12-11T16:45:33.008Z,37.27
2022-12-11T16:48:02.971Z,39.07
2022-12-11T16:50:29.521Z,23.90
2022-12-11T16:52:57.021Z,18.00
2022-12-11T16:55:24.075Z,21.37
2022-12-11T16:57:50.682Z,21.60
2022-12-11T17:00:17.440Z,25.40
2022-12-11T17:02:44.079Z,19.10
2022-12-11T17:05:12.701Z,19.63
2022-12-11T17:07:40.361Z,25.43
2022-12-11T17:10:08.046Z,20.50
2022-12-11T17:12:34.682Z,29.50
2022-12-11T17:15:01.325Z,33.70
2022-12-11T17:17:27.928Z,31.63
2022-12-11T17:19:55.684Z,20.30
2022-12-11T17:22:22.768Z,18.40
2022-12-11T17:24:49.627Z,21.20
2022-12-11T17:27:16.850Z,21.83
2022-12-11T17:29:43.891Z,19.00
2022-12-11T17:32:11.138Z,21.33
2022-12-11T17:34:38.594Z,21.27
2022-12-11T17:37:06.163Z,20.50
2022-12-11T17:39:33.151Z,25.10
2022-12-11T17:41:59.825Z,22.73
2022-12-11T17:44:26.813Z,21.07
2022-12-11T17:46:53.516Z,23.37
2022-12-11T17:49:20.151Z,23.73
2022-12-11T17:51:47.812Z,23.90
2022-12-11T17:54:14.855Z,21.37
2022-12-11T17:56:41.608Z,21.80
2022-12-11T17:59:08.229Z,23.53
2022-12-11T18:01:35.294Z,20.97
2022-12-11T18:04:02.365Z,20.93
2022-12-11T18:06:29.860Z,24.97
2022-12-11T18:08:57.390Z,38.20
2022-12-11T18:11:24.181Z,28.87
2022-12-11T18:13:52.642Z,31.17
2022-12-11T18:16:24.510Z,31.30
2022-12-11T18:18:52.021Z,31.47
2022-12-11T18:21:22.654Z,25.67
2022-12-11T18:23:50.451Z,22.70
2022-12-11T18:26:19.219Z,25.97
2022-12-11T18:28:47.313Z,23.40
2022-12-11T18:31:14.308Z,19.60
2022-12-11T18:33:42.818Z,23.30
2022-12-11T18:36:10.412Z,22.57
2022-12-11T18:38:37.949Z,23.07
2022-12-11T18:41:06.648Z,21.70
2022-12-11T18:43:33.742Z,23.30
2022-12-11T18:46:09.272Z,23.40
2022-12-11T18:48:36.451Z,26.27
2022-12-11T18:51:10.197Z,24.60
2022-12-11T18:53:39.233Z,28.13
2022-12-11T18:56:10.986Z,20.47
2022-12-11T18:58:37.729Z,24.67
2022-12-11T19:01:10.008Z,26.17
2022-12-11T19:03:37.037Z,26.87
2022-12-11T19:06:24.408Z,23.73
2022-12-11T19:08:51.246Z,29.60
2022-12-11T19:11:20.621Z,24.97
2022-12-11T19:13:48.351Z,32.00
2022-12-11T19:16:20.067Z,51.63
2022-12-11T19:18:46.780Z,35.80
2022-12-11T19:21:15.298Z,42.90
2022-12-11T19:23:44.276Z,42.43
2022-12-11T19:26:18.111Z,48.70
2022-12-11T19:28:46.699Z,38.03
2022-12-11T19:31:17.206Z,37.27
2022-12-11T19:33:46.591Z,35.07
2022-12-11T19:36:16.385Z,34.43
2022-12-11T19:38:45.113Z,44.73
2022-12-11T19:41:15.736Z,51.63
2022-12-11T19:43:42.471Z,47.90
2022-12-11T19:46:09.982Z,37.53
2022-12-11T19:48:38.240Z,36.67
2022-12-11T19:51:07.009Z,31.73
2022-12-11T19:53:34.549Z,33.00
2022-12-11T19:56:01.333Z,32.50
2022-12-11T19:58:28.008Z,33.00
2022-12-11T20:00:54.737Z,30.30
2022-12-11T20:03:21.969Z,29.40
2022-12-11T20:05:48.501Z,31.30
2022-12-11T20:08:42.909Z,32.00
2022-12-11T20:11:06.219Z,32.70
2022-12-11T20:13:36.229Z,34.30
2022-12-11T20:16:09.865Z,32.07
2022-12-11T20:18:37.479Z,25.00
2022-12-11T20:21:07.785Z,23.47
2022-12-11T20:23:35.408Z,27.20
2022-12-11T20:26:32.517Z,25.20
2022-12-11T20:28:59.193Z,23.20
2022-12-11T20:31:26.520Z,39.10
2022-12-11T20:33:55.588Z,29.27
2022-12-11T20:36:24.037Z,29.60
2022-12-11T20:38:51.523Z,33.10
2022-12-11T20:41:20.586Z,27.40
2022-12-11T20:43:49.074Z,24.37
2022-12-11T20:46:17.375Z,23.40
2022-12-11T20:48:45.438Z,21.70
2022-12-11T20:51:18.595Z,21.37
2022-12-11T20:53:56.668Z,20.27
2022-12-11T20:56:24.504Z,23.10
2022-12-11T20:58:51.392Z,20.27
2022-12-11T21:01:21.682Z,26.97
2022-12-11T21:03:49.086Z,24.40
2022-12-11T21:06:28.240Z,31.33
2022-12-11T21:08:54.769Z,24.17
2022-12-11T21:11:21.679Z,21.47
2022-12-11T21:13:51.129Z,28.50
2022-12-11T21:16:19.237Z,19.60
2022-12-11T21:18:46.600Z,35.87
2022-12-11T21:21:13.346Z,42.50
2022-12-11T21:23:40.036Z,31.57
2022-12-11T21:26:07.153Z,28.80
2022-12-11T21:28:35.657Z,23.60
2022-12-11T21:31:06.311Z,29.80
2022-12-11T21:33:33.454Z,34.33
2022-12-11T21:36:00.783Z,39.17
2022-12-11T21:38:28.210Z,27.13
2022-12-11T21:40:55.831Z,24.13
2022-12-11T21:43:23.781Z,20.60
2022-12-11T21:46:06.766Z,22.07
2022-12-11T21:48:33.578Z,22.33
2022-12-11T21:51:11.513Z,21.43
2022-12-11T21:53:38.427Z,20.10
2022-12-11T21:56:07.332Z,23.97
2022-12-11T21:58:33.909Z,24.57
2022-12-11T22:01:00.611Z,22.63
2022-12-11T22:03:27.315Z,24.17
2022-12-11T22:05:54.194Z,28.80
2022-12-11T22:08:20.862Z,27.70
2022-12-11T22:10:47.854Z,23.93
2022-12-11T22:13:14.633Z,25.67
2022-12-11T22:15:41.263Z,23.60
2022-12-11T22:18:07.854Z,22.40
2022-12-11T22:20:34.381Z,26.10
2022-12-11T22:23:01.165Z,22.13
2022-12-11T22:25:27.706Z,23.17
2022-12-11T22:27:54.230Z,19.40
2022-12-11T22:30:20.880Z,22.83
2022-12-11T22:32:48.284Z,24.93
2022-12-11T22:35:15.294Z,20.63
2022-12-11T22:37:41.967Z,21.40
2022-12-11T22:40:08.832Z,21.63
2022-12-11T22:42:36.050Z,20.67
2022-12-11T22:45:02.953Z,18.73
2022-12-11T22:47:29.500Z,19.13
2022-12-11T22:49:56.104Z,20.77
2022-12-11T22:52:22.643Z,21.97
2022-12-11T22:54:49.221Z,20.83
2022-12-11T22:57:15.881Z,25.00
2022-12-11T22:59:42.555Z,20.53
2022-12-11T23:02:09.250Z,16.63
2022-12-11T23:04:38.284Z,18.10
2022-12-11T23:07:04.884Z,18.40
2022-12-11T23:09:31.932Z,18.97
2022-12-11T23:11:58.874Z,28.93
2022-12-11T23:14:25.940Z,18.20
2022-12-11T23:16:52.566Z,15.47
2022-12-11T23:19:23.845Z,18.23
2022-12-11T23:21:52.663Z,14.83
2022-12-11T23:24:19.278Z,23.37
2022-12-11T23:26:45.852Z,21.37
2022-12-11T23:29:12.356Z,15.77
2022-12-11T23:31:39.099Z,17.63
2022-12-11T23:34:05.709Z,17.80
2022-12-11T23:36:33.070Z,19.00
2022-12-11T23:38:59.620Z,16.60
2022-12-11T23:41:26.662Z,20.73
2022-12-11T23:43:53.273Z,16.43
2022-12-11T23:46:23.066Z,18.73
2022-12-11T23:48:50.862Z,17.07
2022-12-11T23:51:19.566Z,16.10
2022-12-11T23:53:46.534Z,18.13
2022-12-11T23:56:16.553Z,19.73
2022-12-11T23:58:43.224Z,22.23
